createdAt,value
2023-01-11T00:02:09.808Z,48.10
2023-01-11T00:07:12.485Z,39.10
2023-01-11T00:12:15.190Z,35.40
2023-01-11T00:17:17.562Z,32.57
2023-01-11T00:22:20.342Z,46.20
2023-01-11T00:27:22.593Z,30.07
2023-01-11T00:32:25.159Z,28.67
2023-01-11T00:37:27.388Z,30.00
2023-01-11T00:42:48.417Z,29.30
2023-01-11T00:48:04.916Z,26.87
2023-01-11T00:53:08.922Z,29.03
2023-01-11T00:58:11.150Z,28.53
2023-01-11T01:03:13.376Z,26.57
2023-01-11T01:08:15.966Z,22.70
2023-01-11T01:13:36.991Z,19.47
2023-01-11T01:18:39.282Z,36.87
2023-01-11T01:23:41.510Z,25.63
2023-01-11T01:28:43.759Z,25.97
2023-01-11T01:33:45.989Z,24.87
2023-01-11T01:38:48.311Z,25.70
2023-01-11T01:43:58.945Z,73.33
2023-01-11T01:49:11.986Z,65.13
2023-01-11T01:54:18.696Z,54.43
2023-01-11T01:59:22.642Z,41.30
2023-01-11T02:04:38.707Z,29.67
2023-01-11T02:09:57.133Z,32.40
2023-01-11T02:15:01.218Z,43.63
2023-01-11T02:20:17.498Z,36.73
2023-01-11T02:25:41.689Z,48.50
2023-01-11T02:31:08.945Z,35.57
2023-01-11T02:36:31.020Z,34.67
2023-01-11T02:42:04.790Z,39.00
2023-01-11T02:47:17.794Z,33.43
2023-01-11T02:52:55.441Z,28.13
2023-01-11T02:58:00.822Z,28.07
2023-01-11T03:03:10.674Z,26.63
2023-01-11T03:08:28.159Z,29.87
2023-01-11T03:13:39.658Z,35.03
2023-01-11T03:18:53.501Z,41.73
2023-01-11T03:24:02.000Z,28.50
2023-01-11T03:29:21.885Z,31.47
2023-01-11T03:34:51.548Z,28.77
2023-01-11T03:40:07.375Z,35.10
2023-01-11T03:45:10.280Z,34.53
2023-01-11T03:50:13.768Z,33.40
2023-01-11T03:55:16.956Z,34.43
2023-01-11T04:00:21.017Z,27.30
2023-01-11T04:05:23.374Z,33.67
2023-01-11T04:10:25.592Z,30.03
2023-01-11T04:15:30.792Z,28.27
2023-01-11T04:20:34.977Z,52.77
2023-01-11T04:25:37.531Z,41.00
2023-01-11T04:30:39.837Z,31.30
2023-01-11T04:35:42.327Z,33.83
2023-01-11T04:40:44.766Z,30.10
2023-01-11T04:45:47.102Z,27.60
2023-01-11T04:50:49.423Z,26.40
2023-01-11T04:55:53.573Z,26.30
2023-01-11T05:00:55.820Z,25.50
2023-01-11T05:06:00.025Z,28.90
2023-01-11T05:11:05.115Z,30.07
2023-01-11T05:16:10.120Z,26.30
2023-01-11T05:21:14.167Z,26.63
2023-01-11T05:26:24.315Z,30.43
2023-01-11T05:31:27.248Z,25.80
2023-01-11T05:36:29.813Z,33.37
2023-01-11T05:41:32.120Z,53.73
2023-01-11T05:46:36.506Z,29.10
2023-01-11T05:51:40.690Z,29.00
2023-01-11T05:56:43.069Z,33.07
2023-01-11T06:01:45.469Z,26.30
2023-01-11T06:06:47.840Z,27.57
2023-01-11T06:11:50.610Z,25.43
2023-01-11T06:16:53.554Z,36.50
2023-01-11T06:21:55.803Z,23.57
2023-01-11T06:26:58.058Z,24.10
2023-01-11T06:32:00.369Z,21.93
2023-01-11T06:37:02.709Z,19.60
2023-01-11T06:42:05.116Z,15.93
2023-01-11T06:47:07.368Z,17.37
2023-01-11T06:52:09.582Z,19.60
2023-01-11T06:57:12.084Z,21.43
2023-01-11T07:02:14.359Z,28.70
2023-01-11T07:07:16.785Z,20.70
2023-01-11T07:12:19.100Z,24.90
2023-01-11T07:17:21.950Z,21.43
2023-01-11T07:22:24.353Z,18.90
2023-01-11T07:27:26.658Z,20.03
2023-01-11T07:32:29.074Z,32.40
2023-01-11T07:37:32.768Z,29.17
2023-01-11T07:42:53.457Z,47.07
2023-01-11T07:47:55.681Z,39.47
2023-01-11T07:52:58.025Z,27.37
2023-01-11T07:58:00.373Z,27.33
2023-01-11T08:03:03.038Z,39.70
2023-01-11T08:08:06.337Z,51.07
2023-01-11T08:13:30.731Z,69.63
2023-01-11T08:18:33.388Z,30.47
2023-01-11T08:23:35.678Z,42.97
2023-01-11T08:28:37.908Z,20.57
2023-01-11T08:33:40.827Z,38.27
2023-01-11T08:38:44.040Z,26.80
2023-01-11T08:43:46.397Z,43.73
2023-01-11T08:48:48.799Z,22.30
2023-01-11T08:53:52.546Z,24.90
2023-01-11T08:58:54.871Z,20.27
2023-01-11T09:03:57.297Z,20.63
2023-01-11T09:08:59.515Z,15.83
2023-01-11T09:14:01.836Z,33.97
2023-01-11T09:19:04.281Z,44.20
2023-01-11T09:24:06.928Z,18.47
2023-01-11T09:29:10.309Z,15.70
2023-01-11T09:34:13.248Z,30.90
2023-01-11T09:39:18.789Z,41.43
2023-01-11T09:44:25.489Z,28.87
2023-01-11T09:49:31.392Z,15.83
2023-01-11T09:54:34.401Z,18.23
2023-01-11T10:00:00.969Z,17.47
2023-01-11T10:05:34.793Z,16.97
2023-01-11T10:18:32.233Z,20.90
2023-01-11T10:22:08.557Z,136.47
2023-01-11T10:27:30.886Z,110.47
2023-01-11T10:32:53.234Z,121.30
2023-01-11T10:38:22.119Z,73.77
2023-01-11T10:43:26.590Z,42.20
2023-01-11T10:48:37.745Z,37.27
2023-01-11T10:53:55.170Z,15.77
2023-01-11T10:59:07.492Z,19.43
2023-01-11T11:04:26.099Z,28.67
2023-01-11T11:09:38.050Z,12.03
2023-01-11T11:14:46.059Z,9.97
2023-01-11T11:19:48.456Z,19.97
2023-01-11T11:24:59.673Z,22.27
2023-01-11T11:30:02.060Z,36.17
2023-01-11T11:35:07.733Z,16.73
2023-01-11T11:40:37.813Z,32.77
2023-01-11T11:45:57.152Z,31.83
2023-01-11T11:51:03.276Z,46.73
2023-01-11T11:56:17.980Z,47.77
2023-01-11T12:01:36.584Z,34.20
2023-01-11T12:06:40.779Z,39.43
2023-01-11T12:11:48.604Z,28.53
2023-01-11T12:16:50.853Z,190.47
2023-01-11T12:21:53.374Z,53.77
2023-01-11T12:27:41.732Z,90.40
2023-01-11T12:33:02.976Z,22.13
2023-01-11T12:38:26.676Z,48.33
2023-01-11T12:43:49.369Z,73.87
2023-01-11T12:49:00.720Z,36.00
2023-01-11T12:54:05.928Z,57.27
2023-01-11T12:59:25.318Z,19.87
2023-01-11T13:04:42.375Z,28.97
2023-01-11T13:10:24.005Z,15.80
2023-01-11T13:15:53.969Z,26.23
2023-01-11T13:21:03.912Z,22.03
2023-01-11T13:26:23.479Z,19.20
2023-01-11T13:31:26.790Z,18.97
2023-01-11T13:36:39.934Z,17.97
2023-01-11T13:41:47.328Z,18.40
2023-01-11T13:47:20.808Z,21.57
2023-01-11T13:52:37.273Z,27.37
2023-01-11T13:58:05.718Z,17.33
2023-01-11T14:03:36.061Z,18.10
2023-01-11T14:09:00.505Z,29.73
2023-01-11T14:14:46.417Z,35.43
2023-01-11T14:20:01.868Z,26.43
2023-01-11T14:25:14.596Z,19.80
2023-01-11T14:30:25.486Z,34.80
2023-01-11T14:35:49.948Z,29.27
2023-01-11T14:41:19.988Z,16.10
2023-01-11T14:47:12.822Z,30.63
2023-01-11T14:52:34.440Z,73.97
2023-01-11T14:57:59.696Z,47.17
2023-01-11T15:03:01.905Z,54.87
2023-01-11T15:08:34.323Z,160.27
2023-01-11T15:13:45.948Z,17.30
2023-01-11T15:18:48.196Z,21.90
2023-01-11T15:23:54.913Z,30.83
2023-01-11T15:29:01.371Z,27.53
2023-01-11T15:34:27.205Z,73.87
2023-01-11T15:39:46.577Z,29.93
2023-01-11T15:45:18.939Z,15.90
2023-01-11T15:50:45.342Z,18.70
2023-01-11T15:56:21.231Z,41.93
2023-01-11T16:01:30.693Z,32.23
2023-01-11T16:07:03.114Z,25.00
2023-01-11T16:12:26.711Z,14.47
2023-01-11T16:17:29.631Z,31.50
2023-01-11T16:22:31.897Z,19.87
2023-01-11T16:27:35.210Z,44.93
2023-01-11T16:32:37.680Z,21.80
2023-01-11T16:37:45.153Z,32.67
2023-01-11T16:42:51.569Z,15.97
2023-01-11T16:48:13.796Z,14.90
2023-01-11T16:53:16.684Z,17.13
2023-01-11T16:58:29.803Z,19.33
2023-01-11T17:03:37.123Z,17.47
2023-01-11T17:08:45.147Z,15.73
2023-01-11T17:14:24.652Z,15.37
2023-01-11T17:19:29.915Z,14.70
2023-01-11T17:24:39.937Z,10.90
2023-01-11T17:29:44.611Z,19.93
2023-01-11T17:34:48.508Z,11.83
2023-01-11T17:39:54.815Z,10.90
2023-01-11T17:45:13.536Z,13.20
2023-01-11T17:50:39.439Z,14.83
2023-01-11T17:55:55.955Z,16.07
2023-01-11T18:01:14.824Z,19.07
2023-01-11T18:06:39.968Z,22.70
2023-01-11T18:11:42.758Z,30.10
2023-01-11T18:17:05.559Z,63.10
2023-01-11T18:22:29.637Z,41.17
2023-01-11T18:27:34.298Z,44.50
2023-01-11T18:32:41.613Z,33.57
2023-01-11T18:37:43.894Z,122.93
2023-01-11T18:42:48.453Z,23.67
2023-01-11T18:47:51.051Z,28.73
2023-01-11T18:52:53.409Z,29.57
2023-01-11T18:57:57.503Z,178.87
2023-01-11T19:03:01.066Z,29.90
2023-01-11T19:08:03.352Z,27.47
2023-01-11T19:13:05.594Z,27.73
2023-01-11T19:18:07.850Z,80.10
2023-01-11T19:23:10.099Z,29.87
2023-01-11T19:28:12.319Z,116.40
2023-01-11T19:33:14.629Z,63.63
2023-01-11T19:38:18.492Z,32.10
2023-01-11T19:43:20.750Z,31.67
2023-01-11T19:48:23.699Z,39.80
2023-01-11T19:53:25.964Z,50.20
2023-01-11T19:58:28.206Z,60.90
2023-01-11T20:03:30.430Z,46.93
2023-01-11T20:08:36.052Z,90.57
2023-01-11T20:13:39.283Z,38.63
2023-01-11T20:18:42.777Z,37.93
2023-01-11T20:23:45.093Z,78.63
2023-01-11T20:28:54.453Z,68.70
2023-01-11T20:33:57.379Z,37.93
2023-01-11T20:38:59.732Z,36.93
2023-01-11T20:44:02.151Z,37.47
2023-01-11T20:49:06.580Z,34.23
2023-01-11T20:54:09.026Z,32.53
2023-01-11T20:59:13.564Z,42.47
2023-01-11T21:04:17.953Z,45.27
2023-01-11T21:09:20.183Z,30.27
2023-01-11T21:14:23.319Z,33.40
2023-01-11T21:19:25.749Z,36.80
2023-01-11T21:24:28.140Z,28.53
2023-01-11T21:29:30.458Z,217.67
2023-01-11T21:34:32.737Z,434.87
2023-01-11T21:39:35.054Z,548.27
2023-01-11T21:44:37.310Z,455.90
2023-01-11T21:49:39.868Z,158.73
2023-01-11T21:54:42.113Z,34.80
2023-01-11T21:59:44.330Z,46.40
2023-01-11T22:04:46.641Z,43.00
2023-01-11T22:10:03.706Z,41.90
2023-01-11T22:15:07.359Z,64.47
2023-01-11T22:20:10.654Z,43.47
2023-01-11T22:25:12.924Z,31.33
2023-01-11T22:30:15.439Z,150.63
2023-01-11T22:35:17.735Z,100.10
2023-01-11T22:40:19.987Z,846.10
2023-01-11T22:45:22.241Z,391.37
2023-01-11T22:50:24.936Z,41.03
2023-01-11T22:55:27.185Z,349.90
2023-01-11T23:00:29.476Z,395.97
2023-01-11T23:05:31.738Z,278.93
2023-01-11T23:10:33.991Z,198.23
2023-01-11T23:15:39.626Z,115.00
2023-01-11T23:20:41.931Z,252.00
2023-01-11T23:25:44.183Z,123.33
2023-01-11T23:30:46.408Z,35.40
2023-01-11T23:35:56.414Z,42.83
2023-01-11T23:41:24.422Z,53.73
2023-01-11T23:46:45.187Z,63.23
2023-01-11T23:51:48.084Z,185.07
2023-01-11T23:56:50.295Z,409.53
